Stolt Jade — ZCSQ4 — position and weather

sailwx.info

Track history (hours):
 
Tides and Currents Weather Stations Pressure Air Temp Water Temp Dewpoint Dewpoint Depression Visibility Wind Speed Wind Dir Waves Ship Positions

Stolt Jade

Last reported at 2015-Jul-30 19:05 UTC. Time now 2015-Aug-02 06:11 UTC.
Position N 29°21' W 094°45'.

Length 175 m; draft 11.4 m.

Type: Ship (hazmat cat C). MMSI: 319439000.

Date/timePositionNaut miles runAvg speedWind from/ knotsBaromVisibWave heightAir tempDewpointWater temp
2015-Jul-30 19:05N 29°21' W 094°45'610.7
2015-Jul-30 18:33N 29°25' W 094°49'1110.6
2015-Jul-30 17:33N 29°34' W 094°55'6 5.9
2015-Jul-30 16:33N 29°37' W 095°01'0 0.2
2015-Jul-30 15:29N 29°37' W 095°01'0 0.0
2015-Jul-30 14:32N 29°37' W 095°01'0 0.0
2015-Jul-30 13:32N 29°37' W 095°01'0 0.0
2015-Jul-30 12:32N 29°37' W 095°01'0 0.0
2015-Jul-30 11:26N 29°37' W 095°01'0 0.0
2015-Jul-30 10:32N 29°37' W 095°01'0 0.0
2015-Jul-30 09:32N 29°37' W 095°01'0 0.0
2015-Jul-30 08:32N 29°37' W 095°01'0 0.0
2015-Jul-30 07:32N 29°37' W 095°01'0 0.0
2015-Jul-30 06:32N 29°37' W 095°01'0 0.0
2015-Jul-30 05:32N 29°37' W 095°01'0 0.0
2015-Jul-30 04:32N 29°37' W 095°01'0 0.0
2015-Jul-30 03:32N 29°37' W 095°01'0 0.0
2015-Jul-30 02:32N 29°37' W 095°01'0 0.0
2015-Jul-30 01:32N 29°37' W 095°01'0 0.0
2015-Jul-30 00:32N 29°37' W 095°01'0 0.0
2015-Jul-29 23:32N 29°37' W 095°01'0 0.0
2015-Jul-29 22:29N 29°37' W 095°01'0 0.0
2015-Jul-29 21:32N 29°37' W 095°01'0 0.0
2015-Jul-29 20:32N 29°37' W 095°01'0 0.0
2015-Jul-29 19:29N 29°37' W 095°01'0 0.0
2015-Jul-29 18:32N 29°37' W 095°01'0 0.0
2015-Jul-29 17:32N 29°37' W 095°01'0 0.0
2015-Jul-29 16:32N 29°37' W 095°01'0 0.0
2015-Jul-29 15:32N 29°37' W 095°01'0 0.0
2015-Jul-29 14:32N 29°37' W 095°01'0 0.0
2015-Jul-29 13:32N 29°37' W 095°01'0 0.0
2015-Jul-29 12:32N 29°37' W 095°01'0 0.0
2015-Jul-29 11:29N 29°37' W 095°01'0 0.0
2015-Jul-29 10:32N 29°37' W 095°01'0 0.0
2015-Jul-29 09:32N 29°37' W 095°01'0 0.0
2015-Jul-29 08:32N 29°37' W 095°01'0 0.0
2015-Jul-29 07:32N 29°37' W 095°01'0 0.0
2015-Jul-29 06:32N 29°37' W 095°01'0 0.0
2015-Jul-29 05:32N 29°37' W 095°01'0 0.0
2015-Jul-29 04:32N 29°37' W 095°01'0 0.0
2015-Jul-29 03:32N 29°37' W 095°01'0 0.0
2015-Jul-29 02:32N 29°37' W 095°01'0 0.0
2015-Jul-29 01:32N 29°37' W 095°01'0 0.0
2015-Jul-29 00:32N 29°37' W 095°01'0 0.0
2015-Jul-28 23:32N 29°37' W 095°01'0 0.0
2015-Jul-28 22:29N 29°37' W 095°01'0 0.0
2015-Jul-28 21:32N 29°37' W 095°01'0 0.0
2015-Jul-28 20:32N 29°37' W 095°01'0 0.0
2015-Jul-28 19:32N 29°37' W 095°01'0 0.0
2015-Jul-28 18:32N 29°37' W 095°01'0 0.0
2015-Jul-28 17:32N 29°37' W 095°01'0 0.0
2015-Jul-28 16:32N 29°37' W 095°01'0 0.0
2015-Jul-28 15:32N 29°37' W 095°01'0 0.0
2015-Jul-28 14:32N 29°37' W 095°01'0 0.0
2015-Jul-28 13:32N 29°37' W 095°01'0 0.0
2015-Jul-28 12:32N 29°37' W 095°01'0 0.0
2015-Jul-28 11:32N 29°37' W 095°01'0 0.0
2015-Jul-28 10:32N 29°37' W 095°01'0 0.0
2015-Jul-28 09:32N 29°37' W 095°01'0 0.0
2015-Jul-28 08:32N 29°37' W 095°01'0 0.0
2015-Jul-28 07:32N 29°37' W 095°01'0 0.0
2015-Jul-28 06:32N 29°37' W 095°01'0 0.0
2015-Jul-28 05:32N 29°37' W 095°01'0 0.0
2015-Jul-28 04:32N 29°37' W 095°01'0 0.0
2015-Jul-28 03:32N 29°37' W 095°01'0 0.0
2015-Jul-28 02:32N 29°37' W 095°01'0 0.0
2015-Jul-28 01:32N 29°37' W 095°01'0 0.0
2015-Jul-28 00:32N 29°37' W 095°01'0 0.0
2015-Jul-27 23:29N 29°37' W 095°01'0 0.0
2015-Jul-27 22:29N 29°37' W 095°01'0 0.0
2015-Jul-27 21:32N 29°37' W 095°01'0 0.0
2015-Jul-27 20:32N 29°37' W 095°01'0 0.0
2015-Jul-27 19:26N 29°37' W 095°01'0 0.0
2015-Jul-27 18:32N 29°37' W 095°01'2 1.9
2015-Jul-27 17:33N 29°37' W 094°59'10 9.9
2015-Jul-27 16:33N 29°29' W 094°52'  
2015-Jul-22 04:33N 29°22' W 094°48'1211.6
2015-Jul-22 03:33N 29°32' W 094°54'8 7.9
2015-Jul-22 02:33N 29°37' W 095°01'1 0.8
2015-Jul-22 01:33N 29°37' W 095°01'0 0.0
2015-Jul-22 00:33N 29°37' W 095°01'0 0.0
2015-Jul-21 23:33N 29°37' W 095°01'0 0.0
2015-Jul-21 22:33N 29°37' W 095°01'0 0.0
2015-Jul-21 21:33N 29°37' W 095°01'0 0.0
2015-Jul-21 20:33N 29°37' W 095°01'0 0.0
2015-Jul-21 19:33N 29°37' W 095°01'0 0.0
2015-Jul-21 18:30N 29°37' W 095°01'0 0.0
2015-Jul-21 17:33N 29°37' W 095°01'0 0.0
2015-Jul-21 16:33N 29°37' W 095°01'0 0.0
2015-Jul-21 15:33N 29°37' W 095°01'0 0.0
2015-Jul-21 14:30N 29°37' W 095°01'0 0.0
2015-Jul-21 13:33N 29°37' W 095°01'0 0.0
2015-Jul-21 12:33N 29°37' W 095°01'0 0.0
2015-Jul-21 11:33N 29°37' W 095°01'0 0.0
2015-Jul-21 10:33N 29°37' W 095°01'0 0.0
2015-Jul-21 09:33N 29°37' W 095°01'0 0.0
2015-Jul-21 08:33N 29°37' W 095°01'0 0.0
2015-Jul-21 07:33N 29°37' W 095°01'0 0.0
2015-Jul-21 06:33N 29°37' W 095°01'0 0.0
2015-Jul-21 05:33N 29°37' W 095°01'0 0.0
2015-Jul-21 04:33N 29°37' W 095°01'0 0.0
2015-Jul-21 03:33N 29°37' W 095°01'3 2.8
2015-Jul-21 02:34N 29°37' W 094°58'9 8.9
2015-Jul-21 01:33N 29°30' W 094°52'1111.0
2015-Jul-21 00:31N 29°21' W 094°44'  
Track history (hours):
 
Tides and Currents Weather Stations Pressure Air Temp Water Temp Dewpoint Dewpoint Depression Visibility Wind Speed Wind Dir Waves Ship Positions

Stolt Jade

Last reported at 2015-Jul-30 19:05 UTC. Time now 2015-Aug-02 06:11 UTC.
Position N 29°21' W 094°45'.

Length 175 m; draft 11.4 m.

Type: Ship (hazmat cat C). MMSI: 319439000.

Date/timePositionNaut miles runAvg speedWind from/ knotsBaromVisibWave heightAir tempDewpointWater temp
2015-Jul-30 19:05N 29°21' W 094°45'610.7
2015-Jul-30 18:33N 29°25' W 094°49'1110.6
2015-Jul-30 17:33N 29°34' W 094°55'6 5.9
2015-Jul-30 16:33N 29°37' W 095°01'0 0.2
2015-Jul-30 15:29N 29°37' W 095°01'0 0.0
2015-Jul-30 14:32N 29°37' W 095°01'0 0.0
2015-Jul-30 13:32N 29°37' W 095°01'0 0.0
2015-Jul-30 12:32N 29°37' W 095°01'0 0.0
2015-Jul-30 11:26N 29°37' W 095°01'0 0.0
2015-Jul-30 10:32N 29°37' W 095°01'0 0.0
2015-Jul-30 09:32N 29°37' W 095°01'0 0.0
2015-Jul-30 08:32N 29°37' W 095°01'0 0.0
2015-Jul-30 07:32N 29°37' W 095°01'0 0.0
2015-Jul-30 06:32N 29°37' W 095°01'0 0.0
2015-Jul-30 05:32N 29°37' W 095°01'0 0.0
2015-Jul-30 04:32N 29°37' W 095°01'0 0.0
2015-Jul-30 03:32N 29°37' W 095°01'0 0.0
2015-Jul-30 02:32N 29°37' W 095°01'0 0.0
2015-Jul-30 01:32N 29°37' W 095°01'0 0.0
2015-Jul-30 00:32N 29°37' W 095°01'0 0.0
2015-Jul-29 23:32N 29°37' W 095°01'0 0.0
2015-Jul-29 22:29N 29°37' W 095°01'0 0.0
2015-Jul-29 21:32N 29°37' W 095°01'0 0.0
2015-Jul-29 20:32N 29°37' W 095°01'0 0.0
2015-Jul-29 19:29N 29°37' W 095°01'0 0.0
2015-Jul-29 18:32N 29°37' W 095°01'0 0.0
2015-Jul-29 17:32N 29°37' W 095°01'0 0.0
2015-Jul-29 16:32N 29°37' W 095°01'0 0.0
2015-Jul-29 15:32N 29°37' W 095°01'0 0.0
2015-Jul-29 14:32N 29°37' W 095°01'0 0.0
2015-Jul-29 13:32N 29°37' W 095°01'0 0.0
2015-Jul-29 12:32N 29°37' W 095°01'0 0.0
2015-Jul-29 11:29N 29°37' W 095°01'0 0.0
2015-Jul-29 10:32N 29°37' W 095°01'0 0.0
2015-Jul-29 09:32N 29°37' W 095°01'0 0.0
2015-Jul-29 08:32N 29°37' W 095°01'0 0.0
2015-Jul-29 07:32N 29°37' W 095°01'0 0.0
2015-Jul-29 06:32N 29°37' W 095°01'0 0.0
2015-Jul-29 05:32N 29°37' W 095°01'0 0.0
2015-Jul-29 04:32N 29°37' W 095°01'0 0.0
2015-Jul-29 03:32N 29°37' W 095°01'0 0.0
2015-Jul-29 02:32N 29°37' W 095°01'0 0.0
2015-Jul-29 01:32N 29°37' W 095°01'0 0.0
2015-Jul-29 00:32N 29°37' W 095°01'0 0.0
2015-Jul-28 23:32N 29°37' W 095°01'0 0.0
2015-Jul-28 22:29N 29°37' W 095°01'0 0.0
2015-Jul-28 21:32N 29°37' W 095°01'0 0.0
2015-Jul-28 20:32N 29°37' W 095°01'0 0.0
2015-Jul-28 19:32N 29°37' W 095°01'0 0.0
2015-Jul-28 18:32N 29°37' W 095°01'0 0.0
2015-Jul-28 17:32N 29°37' W 095°01'0 0.0
2015-Jul-28 16:32N 29°37' W 095°01'0 0.0
2015-Jul-28 15:32N 29°37' W 095°01'0 0.0
2015-Jul-28 14:32N 29°37' W 095°01'0 0.0
2015-Jul-28 13:32N 29°37' W 095°01'0 0.0
2015-Jul-28 12:32N 29°37' W 095°01'0 0.0
2015-Jul-28 11:32N 29°37' W 095°01'0 0.0
2015-Jul-28 10:32N 29°37' W 095°01'0 0.0
2015-Jul-28 09:32N 29°37' W 095°01'0 0.0
2015-Jul-28 08:32N 29°37' W 095°01'0 0.0
2015-Jul-28 07:32N 29°37' W 095°01'0 0.0
2015-Jul-28 06:32N 29°37' W 095°01'0 0.0
2015-Jul-28 05:32N 29°37' W 095°01'0 0.0
2015-Jul-28 04:32N 29°37' W 095°01'0 0.0
2015-Jul-28 03:32N 29°37' W 095°01'0 0.0
2015-Jul-28 02:32N 29°37' W 095°01'0 0.0
2015-Jul-28 01:32N 29°37' W 095°01'0 0.0
2015-Jul-28 00:32N 29°37' W 095°01'0 0.0
2015-Jul-27 23:29N 29°37' W 095°01'0 0.0
2015-Jul-27 22:29N 29°37' W 095°01'0 0.0
2015-Jul-27 21:32N 29°37' W 095°01'0 0.0
2015-Jul-27 20:32N 29°37' W 095°01'0 0.0
2015-Jul-27 19:26N 29°37' W 095°01'0 0.0
2015-Jul-27 18:32N 29°37' W 095°01'2 1.9
2015-Jul-27 17:33N 29°37' W 094°59'10 9.9
2015-Jul-27 16:33N 29°29' W 094°52'  
2015-Jul-22 04:33N 29°22' W 094°48'1211.6
2015-Jul-22 03:33N 29°32' W 094°54'8 7.9
2015-Jul-22 02:33N 29°37' W 095°01'1 0.8
2015-Jul-22 01:33N 29°37' W 095°01'0 0.0
2015-Jul-22 00:33N 29°37' W 095°01'0 0.0
2015-Jul-21 23:33N 29°37' W 095°01'0 0.0
2015-Jul-21 22:33N 29°37' W 095°01'0 0.0
2015-Jul-21 21:33N 29°37' W 095°01'0 0.0
2015-Jul-21 20:33N 29°37' W 095°01'0 0.0
2015-Jul-21 19:33N 29°37' W 095°01'0 0.0
2015-Jul-21 18:30N 29°37' W 095°01'0 0.0
2015-Jul-21 17:33N 29°37' W 095°01'0 0.0
2015-Jul-21 16:33N 29°37' W 095°01'0 0.0
2015-Jul-21 15:33N 29°37' W 095°01'0 0.0
2015-Jul-21 14:30N 29°37' W 095°01'0 0.0
2015-Jul-21 13:33N 29°37' W 095°01'0 0.0
2015-Jul-21 12:33N 29°37' W 095°01'0 0.0
2015-Jul-21 11:33N 29°37' W 095°01'0 0.0
2015-Jul-21 10:33N 29°37' W 095°01'0 0.0
2015-Jul-21 09:33N 29°37' W 095°01'0 0.0
2015-Jul-21 08:33N 29°37' W 095°01'0 0.0
2015-Jul-21 07:33N 29°37' W 095°01'0 0.0
2015-Jul-21 06:33N 29°37' W 095°01'0 0.0
2015-Jul-21 05:33N 29°37' W 095°01'0 0.0
2015-Jul-21 04:33N 29°37' W 095°01'0 0.0
2015-Jul-21 03:33N 29°37' W 095°01'3 2.8
2015-Jul-21 02:34N 29°37' W 094°58'9 8.9
2015-Jul-21 01:33N 29°30' W 094°52'1111.0
2015-Jul-21 00:31N 29°21' W 094°44'  

Dump ship's entire track history